Station: EBLB - 20/10/2019 07:03Z (il y a 27 minutes)
EBLB 200703Z AUTO 12005KT 9999 -RA OVC014/// 09/09 Q1007 GRN
Vent du 120º - 5 kt
Visibilité > 10 km (faible pluie)
Ciel couvert à 1400 pieds
Température: +09ºC - Point de rosée: +09ºC - QNH: 1007 hPa
Code couleur militaire: GRN (conditions IMC ou marginales)